Aviation Digital Data Service (ADDS)

Output produced by METARs form (0641 UTC 24 March 2019)
found at http://www.aviationweather.gov/metar/data/
 
KBXK 240615Z AUTO 00000KT 10SM BKN120 14/00 A3003 RMK AO1
KIFP 240635Z AUTO 00000KT 10SM CLR 19/03 A2996 RMK AO2
KIFP 240520Z 2406/2506 VRB06KT P6SM FEW250 
     FM241600 36009KT P6SM SKC 
     FM250200 VRB05KT P6SM FEW250
       
KCGZ 240556Z AUTO 10003KT 10SM CLR 13/04 A3005 RMK AO2 SLP170 6//// T01280039 10239 20128 51008 PNO $
KCHD 240247Z 00000KT 10SM BKN200 21/00 A3000
KAZC 240635Z AUTO 14004KT 10SM CLR 06/01 A3007 RMK AO2
KP08 240635Z AUTO 18006KT 10SM -DZ CLR 12/02 A3007 RMK AO2
KDUG 240556Z AUTO 01008KT 10SM CLR 08/M03 A3013 RMK AO2 SLP170 T00831033 10228 20083 51014
KDUG 240534Z 2406/2506 35005KT P6SM FEW250 
     FM241800 27007KT P6SM FEW200 
     FM250200 36007KT P6SM SCT250
       
KFLG 240557Z AUTO 29004KT 10SM CLR 01/M04 A3014 RMK AO2 SLP167 T00061039 10100 20006 50002
KFLG 240522Z 2406/2506 VRB05KT P6SM FEW250 
     FM241700 22008KT P6SM FEW250 
     FM250200 VRB05KT P6SM SCT250
       
KFHU 240558Z AUTO 24010KT 10SM CLR 11/M04 A3016 RMK AO2 SLP170 T01141042 10211 20112 50007
KGYR 240347Z 00000KT 10SM SCT110 18/03 A3001 RMK LAST
KGCN 240554Z 03003KT 10SM CLR 00/M03 A3013 RMK AO2 SLP180 T00001028 10111 21011 51007
KGCN 240522Z 2406/2506 20004KT P6SM SCT200 
     FM241700 24010KT P6SM FEW250 
     FM250200 VRB05KT P6SM SCT250
       
KIGM 240551Z AUTO 15009KT 10SM CLR 11/M03 A3003 RMK AO2 SLP126 T01061028 10183 20094 53001
KHII 240635Z AUTO 24003KT 10SM CLR 18/00 A2997 RMK AO2
KFFZ 240554Z AUTO 00000KT 10SM CLR 17/02 A3003 RMK AO2 SLP152 T01720022 10239 20172 51007
KOLS 240554Z AUTO 09003KT 10SM CLR 11/M04 A3013 RMK AO2 SLP162 T01061039 10222 20100 50006
KOLS 240534Z 2406/2506 09003KT P6SM FEW250 
     FM241800 26006KT P6SM FEW200 
     FM250300 05003KT P6SM SCT250
       
KPGA 240553Z AUTO 21003KT 10SM OVC100 12/01 A3001 RMK AO2 SLP133 T01220011 10161 20117 51003 TSNO
KPGA 240522Z 2406/2506 VRB05KT P6SM SCT090 BKN110 
     FM241800 VRB05KT P6SM SCT250
       
KPAN 240635Z AUTO 05003KT 10SM CLR 07/M02 A3014 RMK AO2
KGEU 240047Z E22009KT 10SM SCT090 SCT200 24/00 A3000 RMK LAST
KDVT 240553Z 00000KT 10SM CLR 15/04 A3002 RMK AO2 SLP154 T01500044 10228 20144 51006
KDVT 240520Z 2406/2506 VRB03KT P6SM BKN250 
     FM241900 24005KT P6SM FEW250 
     FM250300 VRB04KT P6SM SKC
       
KA39 240615Z AUTO 14006KT 10SM CLR 12/04 A3008 RMK AO2
KPHX 240551Z 10004KT 10SM SCT220 BKN250 20/02 A3000 RMK AO2 SLP148 T02000022 10250 20189 51008
KPHX 240520Z 2406/2512 10004KT P6SM BKN250 
     FM242100 28006KT P6SM FEW250 
     FM250100 35005KT P6SM SKC 
     FM250600 10005KT P6SM FEW250
       
KIWA 240550Z 12006KT 20SM SKC 14/04 A3004
KIWA 240540Z 2406/2506 13005KT P6SM BKN250 
     FM242000 25006KT P6SM FEW250 
     FM250200 04005KT P6SM SKC AMD LTD TO CLD VIS AND WIND TIL 241200
       
KPRC 240553Z AUTO 19005KT 10SM CLR 08/M01 A3011 RMK AO2 SLP153 T00831011 10144 20083 50001
KPRC 240522Z 2406/2506 19007KT P6SM SCT250 
     FM242000 25008KT P6SM FEW250 
     FM250200 19005KT P6SM SCT250
       
KSAD 240551Z AUTO 31006KT 10SM CLR 14/M03 A3006 RMK AO2 SLP153 T01441028 10228 20133 51011
KSJN 240554Z AUTO 23006KT 10SM CLR 08/M03 A3011 RMK AO2 SLP153 T00831033 10172 20083 52007
KSDL 240553Z 00000KT 10SM CLR 17/03 A3003 RMK AO2 SLP155 T01670028 10239 20167 51006
KSDL 240520Z 2406/2506 VRB03KT P6SM BKN250 
     FM242000 26005KT P6SM FEW250 
     FM250300 VRB03KT P6SM SKC
       
KSEZ 240635Z AUTO 16004KT 10SM CLR 10/00 A3011 RMK AO2
KSEZ 240522Z 2406/2506 16005KT P6SM FEW070 BKN250 
     FM240800 04008KT P6SM SCT250 
     FM241600 VRB05KT P6SM FEW250 
     FM250500 04010KT P6SM SCT250
       
KSOW 240635Z AUTO 21007KT 10SM CLR 05/M03 A3015 RMK AO2
KTYL 240635Z AUTO 00000KT 10SM CLR 04/M02 A3014 RMK AO2
KAVQ 240635Z AUTO 11004KT 10SM CLR 11/00 A3006 RMK AO2 T01120000
KRYN 240245Z 27005KT 10SM CLR 17/M01 A3007 RMK LAST
KTUS 240553Z 18004KT 10SM CLR 14/M01 A3010 RMK AO2 SLP167 T01391011 10239 20133 51009
KTUS 240534Z 2406/2506 17004KT P6SM FEW250 
     FM241800 30004KT P6SM FEW250 
     FM250300 VRB04KT P6SM SCT250
       
KCMR 240635Z AUTO 16006KT 10SM CLR 01/M04 A3012 RMK AO2
KRQE 240553Z AUTO 00000KT 10SM SCT070 01/M05 A3013 RMK AO2 SLP164 T00061050 10128 20000 51007
KINW 240556Z AUTO 22013KT 10SM CLR 08/M02 A3010 RMK AO2 SLP163 T00831017 10178 20083 51011
KINW 240522Z 2406/2506 VRB04KT P6SM SCT250 
     FM242100 25010KT P6SM FEW250 
     FM250300 25005KT P6SM SCT250
       
KNYL 240557Z AUTO 15004KT 10SM CLR 17/05 A3003 RMK AO2 SLP168 T01720050 10267 20172 $
TAF KNYL 2403/2503 VRB05KT 9999 FEW250 QNH2991INS AUTOMATED SENSOR METWATCH 2403
TIL 2515 T07/2414Z T27/2423Z